createdAt,value
2019-01-23T00:01:00.536Z,69.39
2019-01-23T00:06:05.240Z,70.14
2019-01-23T00:11:09.676Z,69.06
2019-01-23T00:16:14.052Z,69.64
2019-01-23T00:21:18.493Z,69.05
2019-01-23T00:26:23.830Z,69.77
2019-01-23T00:31:28.238Z,69.81
2019-01-23T00:36:32.661Z,69.53
2019-01-23T00:41:37.087Z,70.49
2019-01-23T00:46:41.442Z,70.49
2019-01-23T00:51:45.817Z,69.95
2019-01-23T00:56:50.192Z,70.09
2019-01-23T01:01:54.670Z,69.64
2019-01-23T01:06:59.061Z,70.72
2019-01-23T01:12:03.578Z,69.53
2019-01-23T01:17:07.928Z,70.32
2019-01-23T01:22:12.289Z,70.47
2019-01-23T01:27:16.688Z,70.08
2019-01-23T01:32:21.127Z,70.30
2019-01-23T01:37:25.570Z,70.18
2019-01-23T01:42:29.950Z,70.36
2019-01-23T01:47:34.405Z,70.19
2019-01-23T01:52:38.845Z,71.51
2019-01-23T01:57:43.274Z,70.67
2019-01-23T02:02:47.704Z,71.31
2019-01-23T02:07:52.054Z,71.35
2019-01-23T02:12:56.400Z,72.23
2019-01-23T02:18:00.776Z,71.75
2019-01-23T02:23:05.170Z,72.47
2019-01-23T02:28:09.573Z,71.89
2019-01-23T02:33:13.952Z,73.41
2019-01-23T02:38:18.355Z,72.44
2019-01-23T02:43:22.705Z,72.72
2019-01-23T02:48:27.239Z,73.03
2019-01-23T02:53:31.576Z,73.77
2019-01-23T02:58:35.952Z,73.09
2019-01-23T03:03:40.370Z,73.75
2019-01-23T03:08:44.720Z,73.70
2019-01-23T03:13:49.245Z,73.56
2019-01-23T03:18:55.077Z,73.25
2019-01-23T03:23:59.439Z,74.43
2019-01-23T03:29:03.884Z,74.39
2019-01-23T03:34:08.277Z,75.17
2019-01-23T03:39:12.655Z,74.29
2019-01-23T03:44:17.052Z,73.14
2019-01-23T03:49:21.430Z,73.90
2019-01-23T03:54:26.904Z,73.52
2019-01-23T03:59:32.348Z,75.09
2019-01-23T04:04:37.018Z,74.54
2019-01-23T04:09:41.382Z,74.97
2019-01-23T04:14:45.723Z,73.95
2019-01-23T04:19:50.177Z,74.73
2019-01-23T04:24:54.537Z,75.26
2019-01-23T04:29:58.891Z,76.13
2019-01-23T04:35:03.634Z,75.59
2019-01-23T04:40:10.431Z,75.60
2019-01-23T04:45:16.821Z,77.11
2019-01-23T04:50:21.219Z,75.48
2019-01-23T04:55:25.637Z,76.53
2019-01-23T05:00:31.755Z,76.93
2019-01-23T05:05:36.128Z,75.74
2019-01-23T05:10:40.570Z,76.46
2019-01-23T05:15:44.962Z,77.27
2019-01-23T05:20:49.317Z,76.23
2019-01-23T05:25:53.757Z,76.60
2019-01-23T05:30:58.160Z,77.02
2019-01-23T05:36:02.547Z,75.33
2019-01-23T05:41:06.927Z,75.67
2019-01-23T05:46:11.311Z,76.47
2019-01-23T05:51:16.057Z,77.36
2019-01-23T05:56:20.441Z,76.34
2019-01-23T06:01:24.878Z,75.69
2019-01-23T06:06:29.291Z,76.75
2019-01-23T06:11:33.664Z,76.74
2019-01-23T06:16:38.045Z,79.24
2019-01-23T06:21:43.517Z,78.72
2019-01-23T06:26:47.940Z,79.17
2019-01-23T06:31:52.313Z,77.95
2019-01-23T06:36:56.728Z,78.75
2019-01-23T06:42:01.059Z,78.20
2019-01-23T06:47:05.405Z,77.59
2019-01-23T06:52:09.783Z,76.95
2019-01-23T06:57:14.176Z,77.35
2019-01-23T07:02:18.562Z,76.29
2019-01-23T07:07:22.932Z,76.29
2019-01-23T07:12:27.314Z,77.04
2019-01-23T07:17:31.724Z,77.05
2019-01-23T07:22:36.156Z,76.96
2019-01-23T07:27:40.586Z,75.80
2019-01-23T07:32:46.080Z,76.90
2019-01-23T07:37:50.437Z,76.13
2019-01-23T07:42:54.790Z,76.43
2019-01-23T07:47:59.159Z,75.14
2019-01-23T07:53:03.520Z,74.51
2019-01-23T07:58:07.915Z,74.55
2019-01-23T08:03:12.260Z,75.48
2019-01-23T08:08:16.642Z,74.87
2019-01-23T08:13:21.087Z,75.02
2019-01-23T08:18:25.481Z,74.40
2019-01-23T08:23:30.957Z,74.89
2019-01-23T08:28:35.699Z,74.49
2019-01-23T08:33:42.959Z,74.29
2019-01-23T08:38:47.317Z,73.60
2019-01-23T08:43:51.813Z,74.88
2019-01-23T08:48:56.161Z,74.17
2019-01-23T08:54:00.580Z,73.23
2019-01-23T08:59:05.057Z,72.30
2019-01-23T09:04:09.430Z,73.05
2019-01-23T09:09:13.781Z,72.54
2019-01-23T09:14:19.296Z,72.69
2019-01-23T09:19:23.658Z,71.89
2019-01-23T09:24:28.030Z,71.17
2019-01-23T09:29:32.376Z,71.44
2019-01-23T09:34:39.984Z,71.20
2019-01-23T09:39:47.652Z,70.76
2019-01-23T09:45:14.837Z,70.20
2019-01-23T09:50:29.427Z,69.99
2019-01-23T09:55:33.927Z,69.87
2019-01-23T10:00:38.313Z,69.58
2019-01-23T10:05:42.705Z,69.37
2019-01-23T10:10:47.079Z,69.21
2019-01-23T10:15:51.498Z,68.80
2019-01-23T10:20:55.850Z,67.82
2019-01-23T10:26:00.255Z,67.74
2019-01-23T10:31:06.823Z,67.16
2019-01-23T10:36:10.821Z,66.82
2019-01-23T10:41:15.169Z,67.29
2019-01-23T10:46:19.633Z,66.88
2019-01-23T10:51:23.993Z,66.02
2019-01-23T10:56:28.356Z,65.48
2019-01-23T11:01:32.753Z,65.41
2019-01-23T11:06:37.145Z,65.75
2019-01-23T11:11:41.511Z,64.07
2019-01-23T11:16:45.872Z,64.85
2019-01-23T11:21:50.254Z,64.94
2019-01-23T11:26:54.608Z,64.80
2019-01-23T11:31:58.970Z,64.57
2019-01-23T11:37:03.317Z,64.55
2019-01-23T11:42:07.752Z,63.69
2019-01-23T11:47:12.182Z,63.45
2019-01-23T11:52:16.532Z,63.24
2019-01-23T11:57:20.968Z,63.36
2019-01-23T12:02:30.758Z,63.17
2019-01-23T12:07:31.458Z,62.03
2019-01-23T12:12:35.923Z,60.77
2019-01-23T12:17:40.478Z,60.78
2019-01-23T12:22:44.954Z,60.68
2019-01-23T12:27:49.368Z,59.88
2019-01-23T12:32:53.740Z,60.47
2019-01-23T12:37:58.118Z,59.64
2019-01-23T12:43:02.480Z,58.54
2019-01-23T12:48:06.910Z,57.02
2019-01-23T12:53:11.262Z,56.60
2019-01-23T12:58:15.641Z,55.05
2019-01-23T13:03:20.021Z,56.27
2019-01-23T13:08:24.409Z,58.79
2019-01-23T13:13:28.765Z,60.33
2019-01-23T13:18:34.242Z,63.03
2019-01-23T13:23:38.628Z,62.17
2019-01-23T13:28:42.983Z,63.64
2019-01-23T13:33:47.391Z,65.37
2019-01-23T13:38:51.789Z,66.17
2019-01-23T13:43:56.192Z,66.56
2019-01-23T13:49:00.544Z,66.72
2019-01-23T13:54:05.331Z,65.76
2019-01-23T13:59:09.683Z,66.82
2019-01-23T14:04:14.056Z,67.39
2019-01-23T14:09:18.450Z,70.56
2019-01-23T14:14:22.906Z,70.65
2019-01-23T14:19:27.278Z,72.36
2019-01-23T14:24:31.746Z,70.37
2019-01-23T14:29:37.205Z,73.11
2019-01-23T14:34:41.571Z,71.64
2019-01-23T14:39:45.947Z,72.80
2019-01-23T14:44:50.300Z,72.11
2019-01-23T14:49:54.686Z,75.51
2019-01-23T14:54:59.036Z,75.70
2019-01-23T15:00:04.589Z,77.03
2019-01-23T15:05:09.041Z,75.10
2019-01-23T15:10:21.434Z,76.31
2019-01-23T15:15:25.869Z,78.57
2019-01-23T15:20:34.225Z,78.00
2019-01-23T15:25:38.681Z,79.88
2019-01-23T15:30:43.056Z,77.69
2019-01-23T15:35:47.416Z,77.68
2019-01-23T15:40:51.895Z,77.09
2019-01-23T15:45:56.280Z,77.58
2019-01-23T15:51:00.685Z,76.47
2019-01-23T15:56:05.115Z,76.39
2019-01-23T16:01:09.581Z,76.48
2019-01-23T16:06:13.935Z,76.96
2019-01-23T16:11:18.516Z,78.08
2019-01-23T16:16:23.936Z,77.94
2019-01-23T16:21:28.291Z,80.17
2019-01-23T16:26:32.680Z,77.98
2019-01-23T16:31:37.045Z,79.77
2019-01-23T16:36:41.439Z,78.37
2019-01-23T16:41:45.830Z,78.78
2019-01-23T16:46:50.246Z,78.64
2019-01-23T16:51:54.620Z,79.59
2019-01-23T16:56:59.037Z,80.67
2019-01-23T17:02:03.423Z,77.09
2019-01-23T17:07:07.875Z,75.23
2019-01-23T17:12:12.364Z,76.50
2019-01-23T17:17:16.826Z,76.86
2019-01-23T17:22:21.234Z,78.43
2019-01-23T17:27:25.591Z,75.48
2019-01-23T17:32:29.966Z,75.29
2019-01-23T17:37:34.308Z,76.53
2019-01-23T17:42:40.474Z,75.72
2019-01-23T17:47:45.029Z,77.62
2019-01-23T17:52:49.488Z,75.41
2019-01-23T17:57:54.872Z,74.78
2019-01-23T18:02:59.816Z,75.61
2019-01-23T18:08:04.436Z,75.63
2019-01-23T18:13:08.809Z,75.09
2019-01-23T18:18:13.839Z,74.75
2019-01-23T18:23:20.142Z,75.71
2019-01-23T18:28:24.684Z,75.84
2019-01-23T18:33:38.317Z,74.83
2019-01-23T18:38:48.748Z,75.90
2019-01-23T18:44:24.751Z,75.40
2019-01-23T18:49:50.082Z,73.50
2019-01-23T18:54:54.652Z,73.57
2019-01-23T18:59:59.534Z,74.45
2019-01-23T19:05:06.672Z,74.66
2019-01-23T19:10:14.154Z,74.35
2019-01-23T19:15:20.275Z,75.59
2019-01-23T19:20:24.935Z,73.63
2019-01-23T19:25:29.294Z,73.95
2019-01-23T19:30:34.072Z,74.41
2019-01-23T19:35:39.468Z,73.36
2019-01-23T19:40:43.820Z,75.60
2019-01-23T19:45:48.294Z,74.44
2019-01-23T19:50:52.690Z,73.98
2019-01-23T19:55:57.148Z,75.99
2019-01-23T20:01:01.488Z,76.01
2019-01-23T20:06:06.928Z,76.81
2019-01-23T20:11:12.365Z,76.56
2019-01-23T20:16:16.809Z,76.75
2019-01-23T20:21:21.213Z,76.71
2019-01-23T20:26:25.689Z,76.99
2019-01-23T20:31:30.075Z,77.79
2019-01-23T20:36:34.417Z,78.25
2019-01-23T20:41:38.823Z,78.63
2019-01-23T20:46:43.215Z,79.87
2019-01-23T20:51:47.669Z,78.88
2019-01-23T20:56:52.058Z,81.44
2019-01-23T21:01:56.428Z,79.41
2019-01-23T21:07:00.806Z,80.06
2019-01-23T21:12:05.258Z,80.51
2019-01-23T21:17:09.631Z,80.09
2019-01-23T21:22:14.116Z,80.29
2019-01-23T21:27:18.491Z,81.38
2019-01-23T21:32:22.875Z,81.20
2019-01-23T21:37:27.251Z,82.86
2019-01-23T21:42:31.644Z,82.39
2019-01-23T21:47:36.960Z,82.57
2019-01-23T21:52:41.278Z,83.60
2019-01-23T21:57:45.660Z,83.52
2019-01-23T22:02:50.040Z,82.88
2019-01-23T22:07:54.747Z,83.07
2019-01-23T22:12:59.155Z,83.32
2019-01-23T22:18:04.293Z,83.03
2019-01-23T22:23:09.232Z,83.86
2019-01-23T22:28:13.593Z,84.19
2019-01-23T22:33:18.083Z,84.52
2019-01-23T22:38:22.444Z,84.62
2019-01-23T22:43:26.803Z,85.10
2019-01-23T22:48:31.297Z,85.16
2019-01-23T22:53:35.785Z,84.21
2019-01-23T22:58:40.162Z,82.97
2019-01-23T23:03:45.891Z,83.14
2019-01-23T23:08:51.304Z,82.37
2019-01-23T23:13:55.679Z,82.18
2019-01-23T23:19:00.736Z,81.92
2019-01-23T23:24:06.152Z,82.09
2019-01-23T23:29:10.609Z,81.70
2019-01-23T23:34:14.967Z,81.91
2019-01-23T23:39:19.359Z,81.66
2019-01-23T23:44:23.769Z,80.80
2019-01-23T23:49:28.143Z,81.55
2019-01-23T23:54:32.531Z,81.35
2019-01-23T23:59:36.935Z,81.56
